IBE1332 EDDF-LEMD
Flight info
| Callsign | IBE1332 |
|---|---|
| Flight time | 2h 45m |
| Altitude | 35000 |
| Route | ANEKI2L/18 ANEKI Y163 HERBI Y164 MOPAN DCT LUTIX DCT BENOT DCT NEMOS DCT NINTU DCT MEBAK DCT REPSI DCT LERGA DCT MINSO DCT NARAK/N0451F370 DCT AGN DCT MAQAB DCT TIVLI N869 ZAR Z245 TERSA |
| Aircraft | A320/M-SDE3FGHIRWY/LB1 |
Departure
| Time | 2026-05-05 17:46 |
|---|---|
| Airport | Frankfurt Main Airport (EDDF) |
Arrival
| Time | 2026-05-05 20:32 |
|---|---|
| Airport | Adolfo Suárez Madrid–Barajas Airport (LEMD) |
| Time | Latitude | Longitude | Altitude | Speed | Heading |
|---|---|---|---|---|---|
| 2026-05-05 17:00 | 50.04894 | 8.58799 | 362 ft | 0 kts | 160° |
| 2026-05-05 17:29 | 50.04915 | 8.58787 | 363 ft | 4 kts | 159° |
| 2026-05-05 17:29 | 50.04939 | 8.58770 | 360 ft | 4 kts | 145° |
| 2026-05-05 17:29 | 50.04958 | 8.58743 | 360 ft | 4 kts | 114° |
| 2026-05-05 17:30 | 50.04961 | 8.58727 | 360 ft | 0 kts | 85° |
| 2026-05-05 17:30 | 50.04961 | 8.58716 | 360 ft | 1 kts | 68° |
| 2026-05-05 17:30 | 50.04959 | 8.58708 | 360 ft | 0 kts | 68° |
| 2026-05-05 17:31 | 50.04959 | 8.58709 | 359 ft | 0 kts | 68° |
| 2026-05-05 17:33 | 50.04951 | 8.58713 | 364 ft | 0 kts | 166° |
| 2026-05-05 17:33 | 50.04948 | 8.58709 | 359 ft | 4 kts | 203° |
| 2026-05-05 17:34 | 50.04935 | 8.58687 | 360 ft | 3 kts | 223° |
| 2026-05-05 17:34 | 50.04930 | 8.58681 | 360 ft | 0 kts | 219° |
| 2026-05-05 17:34 | 50.04926 | 8.58665 | 360 ft | 5 kts | 252° |
| 2026-05-05 17:34 | 50.04913 | 8.58614 | 364 ft | 7 kts | 252° |
| 2026-05-05 17:35 | 50.04885 | 8.58488 | 363 ft | 16 kts | 249° |
| 2026-05-05 17:35 | 50.04848 | 8.58334 | 360 ft | 14 kts | 250° |
| 2026-05-05 17:35 | 50.04816 | 8.58198 | 364 ft | 13 kts | 249° |
| 2026-05-05 17:35 | 50.04786 | 8.58072 | 362 ft | 12 kts | 250° |
| 2026-05-05 17:36 | 50.04760 | 8.57973 | 362 ft | 11 kts | 239° |
| 2026-05-05 17:36 | 50.04693 | 8.57841 | 358 ft | 16 kts | 248° |
| 2026-05-05 17:36 | 50.04657 | 8.57687 | 361 ft | 14 kts | 250° |
| 2026-05-05 17:36 | 50.04625 | 8.57553 | 361 ft | 12 kts | 250° |
| 2026-05-05 17:37 | 50.04599 | 8.57442 | 363 ft | 10 kts | 249° |
| 2026-05-05 17:37 | 50.04580 | 8.57365 | 363 ft | 5 kts | 249° |
| 2026-05-05 17:37 | 50.04548 | 8.57235 | 363 ft | 21 kts | 250° |
| 2026-05-05 17:37 | 50.04491 | 8.56998 | 358 ft | 25 kts | 248° |
| 2026-05-05 17:38 | 50.04430 | 8.56736 | 360 ft | 28 kts | 249° |
| 2026-05-05 17:38 | 50.04359 | 8.56445 | 363 ft | 25 kts | 249° |
| 2026-05-05 17:38 | 50.04300 | 8.56200 | 357 ft | 27 kts | 250° |
| 2026-05-05 17:38 | 50.04232 | 8.55911 | 356 ft | 30 kts | 251° |
| 2026-05-05 17:39 | 50.04154 | 8.55590 | 353 ft | 33 kts | 249° |
| 2026-05-05 17:39 | 50.04077 | 8.55261 | 359 ft | 30 kts | 249° |
| 2026-05-05 17:39 | 50.04018 | 8.55011 | 356 ft | 21 kts | 248° |
| 2026-05-05 17:39 | 50.03968 | 8.54807 | 356 ft | 20 kts | 250° |
| 2026-05-05 17:40 | 50.03919 | 8.54601 | 354 ft | 21 kts | 249° |
| 2026-05-05 17:40 | 50.03869 | 8.54394 | 351 ft | 20 kts | 250° |
| 2026-05-05 17:40 | 50.03805 | 8.54242 | 351 ft | 16 kts | 243° |
| 2026-05-05 17:40 | 50.03769 | 8.54089 | 344 ft | 14 kts | 251° |
| 2026-05-05 17:41 | 50.03736 | 8.53949 | 351 ft | 13 kts | 248° |
| 2026-05-05 17:41 | 50.03699 | 8.53801 | 345 ft | 19 kts | 249° |
| 2026-05-05 17:41 | 50.03648 | 8.53598 | 349 ft | 20 kts | 245° |
| 2026-05-05 17:41 | 50.03598 | 8.53393 | 337 ft | 20 kts | 250° |
| 2026-05-05 17:42 | 50.03553 | 8.53201 | 339 ft | 18 kts | 249° |
| 2026-05-05 17:42 | 50.03514 | 8.53044 | 336 ft | 8 kts | 249° |
| 2026-05-05 17:42 | 50.03509 | 8.53022 | 335 ft | 0 kts | 250° |
| 2026-05-05 17:42 | 50.03507 | 8.53017 | 335 ft | 2 kts | 250° |
| 2026-05-05 17:43 | 50.03496 | 8.52971 | 336 ft | 7 kts | 249° |
| 2026-05-05 17:43 | 50.03477 | 8.52892 | 336 ft | 9 kts | 248° |
| 2026-05-05 17:43 | 50.03458 | 8.52826 | 332 ft | 0 kts | 247° |
| 2026-05-05 17:44 | 50.03457 | 8.52821 | 332 ft | 1 kts | 247° |
| 2026-05-05 17:44 | 50.03445 | 8.52778 | 333 ft | 6 kts | 248° |
| 2026-05-05 17:44 | 50.03426 | 8.52702 | 333 ft | 8 kts | 249° |
| 2026-05-05 17:44 | 50.03405 | 8.52632 | 333 ft | 8 kts | 234° |
| 2026-05-05 17:45 | 50.03342 | 8.52594 | 335 ft | 11 kts | 181° |
| 2026-05-05 17:45 | 50.03332 | 8.52594 | 335 ft | 0 kts | 179° |
| 2026-05-05 17:45 | 50.03239 | 8.52595 | 335 ft | 45 kts | 180° |
| 2026-05-05 17:45 | 50.02686 | 8.52600 | 335 ft | 110 kts | 180° |
| 2026-05-05 17:46 | 50.01769 | 8.52608 | 334 ft | 155 kts | 179° |
| 2026-05-05 17:46 | 50.00592 | 8.52636 | 652 ft | 174 kts | 179° |
| 2026-05-05 17:46 | 49.99371 | 8.52707 | 1400 ft | 176 kts | 179° |
| 2026-05-05 17:46 | 49.98118 | 8.52788 | 1978 ft | 189 kts | 180° |
| 2026-05-05 17:47 | 49.96716 | 8.52878 | 2369 ft | 212 kts | 180° |
| 2026-05-05 17:47 | 49.95186 | 8.52975 | 2949 ft | 226 kts | 179° |
| 2026-05-05 17:47 | 49.93605 | 8.53078 | 3840 ft | 228 kts | 179° |
| 2026-05-05 17:47 | 49.92018 | 8.53185 | 4679 ft | 229 kts | 179° |
| 2026-05-05 17:48 | 49.90419 | 8.53294 | 5541 ft | 230 kts | 179° |
| 2026-05-05 17:48 | 49.88810 | 8.53406 | 6373 ft | 233 kts | 179° |
| 2026-05-05 17:48 | 49.87181 | 8.53520 | 7170 ft | 236 kts | 180° |
| 2026-05-05 17:48 | 49.85556 | 8.53633 | 7984 ft | 238 kts | 180° |
| 2026-05-05 17:49 | 49.83889 | 8.53745 | 8790 ft | 241 kts | 180° |
| 2026-05-05 17:49 | 49.82206 | 8.53857 | 9613 ft | 244 kts | 180° |
| 2026-05-05 17:49 | 49.80501 | 8.53973 | 10363 ft | 247 kts | 180° |
| 2026-05-05 17:49 | 49.78776 | 8.54090 | 11090 ft | 250 kts | 180° |
| 2026-05-05 17:50 | 49.77020 | 8.54003 | 11642 ft | 261 kts | 187° |
| 2026-05-05 17:50 | 49.75129 | 8.53753 | 11891 ft | 284 kts | 187° |
| 2026-05-05 17:50 | 49.73082 | 8.53468 | 12109 ft | 307 kts | 187° |
| 2026-05-05 17:50 | 49.70881 | 8.53163 | 12410 ft | 326 kts | 187° |
| 2026-05-05 17:51 | 49.68596 | 8.52857 | 13035 ft | 332 kts | 187° |
| 2026-05-05 17:51 | 49.66275 | 8.52551 | 13719 ft | 337 kts | 187° |
| 2026-05-05 17:51 | 49.63974 | 8.52248 | 14341 ft | 340 kts | 186° |
| 2026-05-05 17:51 | 49.61637 | 8.51940 | 14981 ft | 342 kts | 186° |
| 2026-05-05 17:52 | 49.59257 | 8.51626 | 15622 ft | 345 kts | 186° |
| 2026-05-05 17:52 | 49.56855 | 8.51311 | 16270 ft | 348 kts | 186° |
| 2026-05-05 17:52 | 49.54430 | 8.50995 | 16913 ft | 351 kts | 186° |
| 2026-05-05 17:52 | 49.51985 | 8.50675 | 17543 ft | 354 kts | 186° |
| 2026-05-05 17:53 | 49.49521 | 8.50350 | 18168 ft | 357 kts | 186° |
| 2026-05-05 17:53 | 49.47042 | 8.50024 | 18707 ft | 360 kts | 186° |
| 2026-05-05 17:53 | 49.44537 | 8.49696 | 19252 ft | 362 kts | 185° |
| 2026-05-05 17:53 | 49.42017 | 8.49365 | 19782 ft | 366 kts | 186° |
| 2026-05-05 17:54 | 49.39467 | 8.49032 | 20297 ft | 369 kts | 185° |
| 2026-05-05 17:54 | 49.36900 | 8.48699 | 20812 ft | 372 kts | 185° |
| 2026-05-05 17:54 | 49.34304 | 8.48365 | 21333 ft | 375 kts | 185° |
| 2026-05-05 17:54 | 49.31696 | 8.48028 | 21841 ft | 378 kts | 185° |
| 2026-05-05 17:55 | 49.29102 | 8.47693 | 22344 ft | 381 kts | 185° |
| 2026-05-05 17:55 | 49.26451 | 8.47352 | 22838 ft | 384 kts | 185° |
| 2026-05-05 17:55 | 49.23778 | 8.47004 | 23320 ft | 387 kts | 185° |
| 2026-05-05 17:55 | 49.21089 | 8.46651 | 23728 ft | 389 kts | 185° |
| 2026-05-05 17:56 | 49.18384 | 8.46295 | 24152 ft | 391 kts | 185° |
| 2026-05-05 17:56 | 49.15669 | 8.45939 | 24565 ft | 393 kts | 185° |
| 2026-05-05 17:56 | 49.12939 | 8.45584 | 24969 ft | 395 kts | 185° |
| 2026-05-05 17:56 | 49.10195 | 8.45226 | 25360 ft | 397 kts | 185° |
| 2026-05-05 17:57 | 49.07436 | 8.44865 | 25751 ft | 399 kts | 185° |
| 2026-05-05 17:57 | 49.04686 | 8.44157 | 26126 ft | 401 kts | 192° |
| 2026-05-05 17:57 | 49.01966 | 8.43208 | 26505 ft | 403 kts | 192° |
| 2026-05-05 17:57 | 48.99225 | 8.42251 | 26887 ft | 405 kts | 192° |
| 2026-05-05 17:58 | 48.96467 | 8.41291 | 27266 ft | 407 kts | 192° |
| 2026-05-05 17:58 | 48.93699 | 8.40326 | 27631 ft | 409 kts | 192° |
| 2026-05-05 17:58 | 48.90915 | 8.39357 | 27988 ft | 411 kts | 192° |
| 2026-05-05 17:58 | 48.88118 | 8.38385 | 28350 ft | 414 kts | 192° |
| 2026-05-05 17:59 | 48.85328 | 8.37419 | 28698 ft | 416 kts | 192° |
| 2026-05-05 17:59 | 48.82494 | 8.36439 | 29043 ft | 418 kts | 192° |
| 2026-05-05 17:59 | 48.79668 | 8.35466 | 29391 ft | 420 kts | 192° |
| 2026-05-05 17:59 | 48.76808 | 8.34473 | 29729 ft | 422 kts | 193° |
| 2026-05-05 18:00 | 48.73949 | 8.33442 | 30084 ft | 422 kts | 193° |
| 2026-05-05 18:00 | 48.71075 | 8.32381 | 30374 ft | 424 kts | 193° |
| 2026-05-05 18:00 | 48.68220 | 8.31319 | 30651 ft | 425 kts | 193° |
| 2026-05-05 18:00 | 48.65346 | 8.30256 | 30922 ft | 427 kts | 193° |
| 2026-05-05 18:01 | 48.62458 | 8.29165 | 31175 ft | 428 kts | 196° |
| 2026-05-05 18:01 | 48.59690 | 8.27514 | 31502 ft | 428 kts | 202° |
| 2026-05-05 18:01 | 48.56951 | 8.25732 | 31867 ft | 427 kts | 202° |
| 2026-05-05 18:01 | 48.54221 | 8.23963 | 32245 ft | 426 kts | 202° |
| 2026-05-05 18:02 | 48.51498 | 8.22199 | 32610 ft | 425 kts | 202° |
| 2026-05-05 18:02 | 48.48781 | 8.20440 | 32985 ft | 424 kts | 202° |
| 2026-05-05 18:02 | 48.46077 | 8.18690 | 33358 ft | 423 kts | 202° |
| 2026-05-05 18:02 | 48.43412 | 8.16965 | 33722 ft | 422 kts | 202° |
| 2026-05-05 18:03 | 48.40712 | 8.15220 | 34048 ft | 422 kts | 202° |
| 2026-05-05 18:03 | 48.38021 | 8.13481 | 34341 ft | 421 kts | 202° |
| 2026-05-05 18:03 | 48.35331 | 8.11742 | 34640 ft | 420 kts | 203° |
| 2026-05-05 18:03 | 48.32650 | 8.10012 | 34811 ft | 418 kts | 203° |
| 2026-05-05 18:04 | 48.29998 | 8.08305 | 34837 ft | 412 kts | 203° |
| 2026-05-05 18:04 | 48.24749 | 8.04933 | 34839 ft | 409 kts | 203° |
| 2026-05-05 18:05 | 48.19554 | 8.01603 | 34846 ft | 408 kts | 203° |
| 2026-05-05 18:05 | 48.14327 | 7.98268 | 34846 ft | 407 kts | 203° |
| 2026-05-05 18:06 | 48.09124 | 7.94954 | 34852 ft | 406 kts | 203° |
| 2026-05-05 18:06 | 48.03923 | 7.91648 | 34852 ft | 406 kts | 203° |
| 2026-05-05 18:07 | 47.98728 | 7.88342 | 34861 ft | 406 kts | 203° |
| 2026-05-05 18:07 | 47.93534 | 7.85044 | 34872 ft | 405 kts | 204° |
| 2026-05-05 18:08 | 47.88350 | 7.81768 | 34874 ft | 404 kts | 204° |
| 2026-05-05 18:08 | 47.83216 | 7.78529 | 34885 ft | 403 kts | 204° |
| 2026-05-05 18:09 | 47.78053 | 7.75281 | 34878 ft | 402 kts | 204° |
| 2026-05-05 18:09 | 47.72896 | 7.72037 | 34869 ft | 402 kts | 204° |
| 2026-05-05 18:10 | 47.67746 | 7.68794 | 34868 ft | 402 kts | 204° |
| 2026-05-05 18:10 | 47.62604 | 7.65576 | 34865 ft | 401 kts | 204° |
| 2026-05-05 18:11 | 47.57453 | 7.62368 | 34864 ft | 401 kts | 204° |
| 2026-05-05 18:11 | 47.52311 | 7.59172 | 34854 ft | 401 kts | 204° |
| 2026-05-05 18:12 | 47.47170 | 7.55975 | 34858 ft | 401 kts | 204° |
| 2026-05-05 18:12 | 47.42029 | 7.52772 | 34861 ft | 401 kts | 204° |
| 2026-05-05 18:13 | 47.37748 | 7.50128 | 34864 ft | 401 kts | 204° |
| 2026-05-05 18:13 | 47.31762 | 7.46433 | 34902 ft | 401 kts | 204° |
| 2026-05-05 18:14 | 47.27487 | 7.43796 | 34901 ft | 401 kts | 204° |
| 2026-05-05 18:14 | 47.22349 | 7.40640 | 34900 ft | 400 kts | 204° |
| 2026-05-05 18:15 | 47.17365 | 7.37060 | 34897 ft | 398 kts | 216° |
| 2026-05-05 18:15 | 47.13439 | 7.31403 | 34899 ft | 397 kts | 231° |
| 2026-05-05 18:16 | 47.10012 | 7.25060 | 34904 ft | 396 kts | 231° |
| 2026-05-05 18:16 | 47.06573 | 7.18747 | 34907 ft | 396 kts | 231° |
| 2026-05-05 18:17 | 47.03150 | 7.12487 | 34911 ft | 396 kts | 231° |
| 2026-05-05 18:17 | 46.99711 | 7.06195 | 34895 ft | 395 kts | 231° |
| 2026-05-05 18:18 | 46.96272 | 6.99910 | 34885 ft | 395 kts | 231° |
| 2026-05-05 18:18 | 46.92829 | 6.93635 | 34912 ft | 395 kts | 230° |
| 2026-05-05 18:19 | 46.89383 | 6.87375 | 34903 ft | 395 kts | 230° |
| 2026-05-05 18:19 | 46.85952 | 6.81165 | 34896 ft | 395 kts | 230° |
| 2026-05-05 18:20 | 46.82498 | 6.74920 | 34898 ft | 395 kts | 230° |
| 2026-05-05 18:20 | 46.79036 | 6.68688 | 34898 ft | 395 kts | 230° |
| 2026-05-05 18:21 | 46.75578 | 6.62466 | 34899 ft | 394 kts | 230° |
| 2026-05-05 18:21 | 46.72126 | 6.56262 | 34914 ft | 393 kts | 230° |
| 2026-05-05 18:22 | 46.68703 | 6.50129 | 34926 ft | 392 kts | 230° |
| 2026-05-05 18:22 | 46.65252 | 6.43964 | 34929 ft | 393 kts | 230° |
| 2026-05-05 18:23 | 46.61791 | 6.37803 | 34923 ft | 393 kts | 230° |
| 2026-05-05 18:23 | 46.58325 | 6.31651 | 34915 ft | 393 kts | 230° |
| 2026-05-05 18:24 | 46.54873 | 6.25538 | 34919 ft | 394 kts | 230° |
| 2026-05-05 18:24 | 46.51401 | 6.19397 | 34918 ft | 394 kts | 230° |
| 2026-05-05 18:25 | 46.47928 | 6.13251 | 34918 ft | 394 kts | 230° |
| 2026-05-05 18:25 | 46.44452 | 6.07120 | 34910 ft | 394 kts | 230° |
| 2026-05-05 18:26 | 46.40963 | 6.00990 | 34919 ft | 394 kts | 230° |
| 2026-05-05 18:26 | 46.37474 | 5.94873 | 34906 ft | 394 kts | 230° |
| 2026-05-05 18:27 | 46.33984 | 5.88763 | 34900 ft | 393 kts | 230° |
| 2026-05-05 18:27 | 46.30517 | 5.82718 | 34905 ft | 393 kts | 230° |
| 2026-05-05 18:28 | 46.25280 | 5.73593 | 34906 ft | 393 kts | 230° |
| 2026-05-05 18:28 | 46.21788 | 5.67521 | 34905 ft | 393 kts | 229° |
| 2026-05-05 18:29 | 46.18287 | 5.61469 | 34917 ft | 392 kts | 229° |
| 2026-05-05 18:29 | 46.14800 | 5.55423 | 34912 ft | 392 kts | 232° |
| 2026-05-05 18:30 | 46.11684 | 5.48951 | 34902 ft | 393 kts | 234° |
| 2026-05-05 18:30 | 46.08598 | 5.42497 | 34898 ft | 394 kts | 234° |
| 2026-05-05 18:31 | 46.05475 | 5.36005 | 34888 ft | 394 kts | 234° |
| 2026-05-05 18:31 | 46.02343 | 5.29521 | 34878 ft | 394 kts | 234° |
| 2026-05-05 18:32 | 45.99214 | 5.23048 | 34874 ft | 394 kts | 234° |
| 2026-05-05 18:32 | 45.96086 | 5.16581 | 34868 ft | 394 kts | 234° |
| 2026-05-05 18:33 | 45.92977 | 5.10162 | 34868 ft | 395 kts | 234° |
| 2026-05-05 18:33 | 45.89828 | 5.03687 | 34851 ft | 396 kts | 234° |
| 2026-05-05 18:34 | 45.86664 | 4.97197 | 34871 ft | 397 kts | 233° |
| 2026-05-05 18:34 | 45.83492 | 4.90706 | 34869 ft | 397 kts | 234° |
| 2026-05-05 18:35 | 45.80321 | 4.84218 | 34873 ft | 397 kts | 234° |
| 2026-05-05 18:35 | 45.77165 | 4.77788 | 34874 ft | 397 kts | 234° |
| 2026-05-05 18:36 | 45.73978 | 4.71320 | 34876 ft | 397 kts | 233° |
| 2026-05-05 18:36 | 45.70787 | 4.64863 | 34878 ft | 398 kts | 233° |
| 2026-05-05 18:37 | 45.67587 | 4.58389 | 34859 ft | 399 kts | 234° |
| 2026-05-05 18:37 | 45.64391 | 4.51914 | 34856 ft | 399 kts | 234° |
| 2026-05-05 18:38 | 45.61184 | 4.45450 | 34852 ft | 399 kts | 233° |
| 2026-05-05 18:38 | 45.57993 | 4.39042 | 34847 ft | 399 kts | 233° |
| 2026-05-05 18:39 | 45.54776 | 4.32596 | 34848 ft | 399 kts | 233° |
| 2026-05-05 18:39 | 45.51557 | 4.26152 | 34866 ft | 399 kts | 233° |
| 2026-05-05 18:40 | 45.48330 | 4.19709 | 34858 ft | 399 kts | 233° |
| 2026-05-05 18:40 | 45.45122 | 4.13330 | 34866 ft | 399 kts | 233° |
| 2026-05-05 18:41 | 45.41892 | 4.06914 | 34873 ft | 398 kts | 233° |
| 2026-05-05 18:41 | 45.38663 | 4.00506 | 34881 ft | 398 kts | 233° |
| 2026-05-05 18:42 | 45.35430 | 3.94109 | 34902 ft | 398 kts | 233° |
| 2026-05-05 18:42 | 45.32189 | 3.87711 | 34905 ft | 398 kts | 233° |
| 2026-05-05 18:43 | 45.28971 | 3.81370 | 34906 ft | 399 kts | 233° |
| 2026-05-05 18:43 | 45.25715 | 3.74984 | 34902 ft | 399 kts | 233° |
| 2026-05-05 18:44 | 45.22504 | 3.68552 | 34892 ft | 400 kts | 234° |
| 2026-05-05 18:44 | 45.19338 | 3.62064 | 34893 ft | 400 kts | 234° |
| 2026-05-05 18:45 | 45.16160 | 3.55575 | 34896 ft | 401 kts | 234° |
| 2026-05-05 18:45 | 45.12965 | 3.49103 | 34894 ft | 400 kts | 234° |
| 2026-05-05 18:46 | 45.09781 | 3.42706 | 34906 ft | 400 kts | 234° |
| 2026-05-05 18:46 | 45.06578 | 3.36282 | 34912 ft | 399 kts | 234° |
| 2026-05-05 18:47 | 45.03385 | 3.29870 | 34916 ft | 399 kts | 234° |
| 2026-05-05 18:47 | 45.00187 | 3.23466 | 34918 ft | 398 kts | 234° |
| 2026-05-05 18:48 | 44.97014 | 3.17121 | 34917 ft | 398 kts | 234° |
| 2026-05-05 18:48 | 44.93825 | 3.10749 | 34917 ft | 397 kts | 234° |
| 2026-05-05 18:49 | 44.90635 | 3.04397 | 34944 ft | 397 kts | 234° |
| 2026-05-05 18:49 | 44.87429 | 2.98049 | 34925 ft | 397 kts | 233° |
| 2026-05-05 18:50 | 44.84222 | 2.91690 | 34921 ft | 398 kts | 234° |
| 2026-05-05 18:50 | 44.81177 | 2.85185 | 34916 ft | 398 kts | 236° |
| 2026-05-05 18:51 | 44.78231 | 2.78640 | 34918 ft | 399 kts | 236° |
| 2026-05-05 18:51 | 44.75234 | 2.72054 | 34918 ft | 399 kts | 236° |
| 2026-05-05 18:52 | 44.72206 | 2.65515 | 34931 ft | 399 kts | 236° |
| 2026-05-05 18:52 | 44.69163 | 2.58969 | 34913 ft | 400 kts | 236° |
| 2026-05-05 18:53 | 44.66112 | 2.52421 | 34908 ft | 401 kts | 236° |
| 2026-05-05 18:53 | 44.63055 | 2.45869 | 34920 ft | 401 kts | 236° |
| 2026-05-05 18:54 | 44.60013 | 2.39359 | 34925 ft | 402 kts | 236° |
| 2026-05-05 18:54 | 44.56950 | 2.32803 | 34924 ft | 401 kts | 236° |
| 2026-05-05 18:55 | 44.53886 | 2.26259 | 34939 ft | 402 kts | 236° |
| 2026-05-05 18:55 | 44.50803 | 2.19714 | 34930 ft | 403 kts | 236° |
| 2026-05-05 18:56 | 44.47716 | 2.13166 | 34929 ft | 403 kts | 236° |
| 2026-05-05 18:56 | 44.44621 | 2.06604 | 34928 ft | 404 kts | 235° |
| 2026-05-05 18:57 | 44.41536 | 2.00098 | 34924 ft | 404 kts | 235° |
| 2026-05-05 18:57 | 44.38428 | 1.93561 | 34935 ft | 403 kts | 235° |
| 2026-05-05 18:58 | 44.35325 | 1.87041 | 34951 ft | 403 kts | 236° |
| 2026-05-05 18:58 | 44.32218 | 1.80520 | 34946 ft | 403 kts | 235° |
| 2026-05-05 18:59 | 44.29104 | 1.74001 | 34942 ft | 403 kts | 236° |
| 2026-05-05 18:59 | 44.26054 | 1.67425 | 34939 ft | 404 kts | 237° |
| 2026-05-05 19:00 | 44.23072 | 1.60858 | 34937 ft | 404 kts | 237° |
| 2026-05-05 19:00 | 44.20055 | 1.54259 | 34938 ft | 403 kts | 236° |
| 2026-05-05 19:01 | 44.17019 | 1.47688 | 34948 ft | 404 kts | 236° |
| 2026-05-05 19:01 | 44.13975 | 1.41111 | 34941 ft | 404 kts | 236° |
| 2026-05-05 19:02 | 44.10929 | 1.34534 | 34940 ft | 404 kts | 236° |
| 2026-05-05 19:02 | 44.07871 | 1.27964 | 34938 ft | 405 kts | 236° |
| 2026-05-05 19:03 | 44.04808 | 1.21390 | 34940 ft | 405 kts | 236° |
| 2026-05-05 19:03 | 44.01761 | 1.14875 | 34928 ft | 405 kts | 236° |
| 2026-05-05 19:04 | 43.98694 | 1.08323 | 34942 ft | 405 kts | 236° |
| 2026-05-05 19:04 | 43.95625 | 1.01773 | 34941 ft | 405 kts | 236° |
| 2026-05-05 19:05 | 43.92549 | 0.95222 | 34943 ft | 405 kts | 236° |
| 2026-05-05 19:05 | 43.89443 | 0.88712 | 34949 ft | 405 kts | 232° |
| 2026-05-05 19:06 | 43.85518 | 0.83232 | 34942 ft | 404 kts | 222° |
| 2026-05-05 19:06 | 43.81320 | 0.78047 | 34936 ft | 404 kts | 223° |
| 2026-05-05 19:07 | 43.77137 | 0.72865 | 34956 ft | 404 kts | 223° |
| 2026-05-05 19:07 | 43.72943 | 0.67696 | 34953 ft | 404 kts | 222° |
| 2026-05-05 19:08 | 43.68738 | 0.62543 | 34950 ft | 404 kts | 222° |
| 2026-05-05 19:08 | 43.64540 | 0.57393 | 34953 ft | 404 kts | 223° |
| 2026-05-05 19:09 | 43.60364 | 0.52279 | 34949 ft | 404 kts | 223° |
| 2026-05-05 19:09 | 43.56162 | 0.47150 | 34960 ft | 403 kts | 223° |
| 2026-05-05 19:10 | 43.51958 | 0.42025 | 34963 ft | 403 kts | 223° |
| 2026-05-05 19:10 | 43.47764 | 0.36902 | 34977 ft | 403 kts | 223° |
| 2026-05-05 19:11 | 43.43559 | 0.31773 | 34969 ft | 404 kts | 223° |
| 2026-05-05 19:11 | 43.39374 | 0.26682 | 34970 ft | 404 kts | 223° |
| 2026-05-05 19:12 | 43.35158 | 0.21578 | 34972 ft | 404 kts | 223° |
| 2026-05-05 19:12 | 43.30936 | 0.16480 | 34981 ft | 404 kts | 223° |
| 2026-05-05 19:13 | 43.26711 | 0.11395 | 34990 ft | 404 kts | 223° |
| 2026-05-05 19:13 | 43.22482 | 0.06319 | 34977 ft | 404 kts | 223° |
| 2026-05-05 19:14 | 43.18254 | 0.01246 | 34993 ft | 403 kts | 223° |
| 2026-05-05 19:14 | 43.14065 | -0.03784 | 35005 ft | 403 kts | 223° |
| 2026-05-05 19:15 | 43.09838 | -0.08847 | 34998 ft | 404 kts | 223° |
| 2026-05-05 19:15 | 43.05610 | -0.13902 | 35000 ft | 404 kts | 223° |
| 2026-05-05 19:16 | 43.01372 | -0.18946 | 34971 ft | 404 kts | 223° |
| 2026-05-05 19:16 | 42.97141 | -0.23978 | 34988 ft | 403 kts | 223° |
| 2026-05-05 19:17 | 42.92914 | -0.28998 | 34999 ft | 403 kts | 223° |
| 2026-05-05 19:17 | 42.88712 | -0.33973 | 34994 ft | 403 kts | 223° |
| 2026-05-05 19:18 | 42.84485 | -0.38963 | 34985 ft | 402 kts | 223° |
| 2026-05-05 19:18 | 42.80076 | -0.43651 | 34986 ft | 405 kts | 212° |
| 2026-05-05 19:19 | 42.74870 | -0.46664 | 34969 ft | 408 kts | 205° |
| 2026-05-05 19:19 | 42.69570 | -0.49446 | 34965 ft | 408 kts | 205° |
| 2026-05-05 19:20 | 42.64273 | -0.52230 | 34958 ft | 408 kts | 205° |
| 2026-05-05 19:20 | 42.58974 | -0.55011 | 34933 ft | 408 kts | 205° |
| 2026-05-05 19:21 | 42.53718 | -0.57767 | 34950 ft | 408 kts | 205° |
| 2026-05-05 19:21 | 42.48419 | -0.60532 | 34945 ft | 408 kts | 205° |
| 2026-05-05 19:22 | 42.43128 | -0.63293 | 34940 ft | 407 kts | 205° |
| 2026-05-05 19:22 | 42.37837 | -0.66060 | 34923 ft | 407 kts | 205° |
| 2026-05-05 19:23 | 42.32554 | -0.68806 | 34928 ft | 407 kts | 205° |
| 2026-05-05 19:23 | 42.27275 | -0.71542 | 34932 ft | 406 kts | 205° |
| 2026-05-05 19:24 | 42.22032 | -0.74259 | 34935 ft | 406 kts | 205° |
| 2026-05-05 19:24 | 42.16759 | -0.76982 | 34925 ft | 406 kts | 206° |
| 2026-05-05 19:25 | 42.11479 | -0.79709 | 34925 ft | 406 kts | 206° |
| 2026-05-05 19:25 | 42.06195 | -0.82438 | 34930 ft | 407 kts | 206° |
| 2026-05-05 19:26 | 42.00905 | -0.85151 | 34937 ft | 407 kts | 206° |
| 2026-05-05 19:26 | 41.95612 | -0.87870 | 34923 ft | 407 kts | 206° |
| 2026-05-05 19:27 | 41.90348 | -0.90550 | 34932 ft | 407 kts | 206° |
| 2026-05-05 19:27 | 41.85046 | -0.93246 | 34944 ft | 407 kts | 206° |
| 2026-05-05 19:28 | 41.79750 | -0.95953 | 34950 ft | 407 kts | 206° |
| 2026-05-05 19:28 | 41.74454 | -0.98661 | 34929 ft | 407 kts | 206° |
| 2026-05-05 19:29 | 41.69170 | -1.01350 | 34955 ft | 406 kts | 206° |
| 2026-05-05 19:29 | 41.64298 | -1.04908 | 34958 ft | 394 kts | 223° |
| 2026-05-05 19:30 | 41.60278 | -1.09773 | 34963 ft | 392 kts | 226° |
| 2026-05-05 19:30 | 41.56228 | -1.14660 | 34979 ft | 392 kts | 226° |
| 2026-05-05 19:31 | 41.52171 | -1.19531 | 34962 ft | 392 kts | 226° |
| 2026-05-05 19:31 | 41.48125 | -1.24391 | 34981 ft | 391 kts | 226° |
| 2026-05-05 19:32 | 41.44088 | -1.29243 | 34986 ft | 390 kts | 226° |
| 2026-05-05 19:32 | 41.40082 | -1.34049 | 34985 ft | 390 kts | 226° |
| 2026-05-05 19:33 | 41.36043 | -1.38881 | 34992 ft | 390 kts | 226° |
| 2026-05-05 19:33 | 41.32004 | -1.43701 | 34956 ft | 390 kts | 227° |
| 2026-05-05 19:34 | 41.28639 | -1.47711 | 34958 ft | 391 kts | 227° |
| 2026-05-05 19:35 | 41.22534 | -1.54970 | 34964 ft | 394 kts | 227° |
| 2026-05-05 19:35 | 41.18443 | -1.59829 | 34966 ft | 395 kts | 227° |
| 2026-05-05 19:36 | 41.14369 | -1.64666 | 34971 ft | 396 kts | 227° |
| 2026-05-05 19:36 | 41.10260 | -1.69531 | 34952 ft | 396 kts | 227° |
| 2026-05-05 19:37 | 41.06150 | -1.74378 | 34967 ft | 395 kts | 227° |
| 2026-05-05 19:37 | 41.02044 | -1.79222 | 34984 ft | 395 kts | 227° |
| 2026-05-05 19:38 | 40.97932 | -1.84041 | 34987 ft | 395 kts | 227° |
| 2026-05-05 19:38 | 40.93852 | -1.88821 | 34988 ft | 394 kts | 227° |
| 2026-05-05 19:39 | 40.89750 | -1.93629 | 34987 ft | 395 kts | 227° |
| 2026-05-05 19:39 | 40.85645 | -1.98438 | 34973 ft | 394 kts | 227° |
| 2026-05-05 19:40 | 40.81543 | -2.03232 | 34988 ft | 393 kts | 227° |
| 2026-05-05 19:40 | 40.77444 | -2.08008 | 34995 ft | 393 kts | 227° |
| 2026-05-05 19:41 | 40.73838 | -2.13249 | 34991 ft | 381 kts | 248° |
| 2026-05-05 19:41 | 40.73115 | -2.16514 | 34991 ft | 377 kts | 264° |
| 2026-05-05 19:41 | 40.73237 | -2.19955 | 34988 ft | 378 kts | 276° |
| 2026-05-05 19:42 | 40.74065 | -2.26811 | 34981 ft | 379 kts | 277° |
| 2026-05-05 19:42 | 40.74907 | -2.33684 | 34978 ft | 380 kts | 277° |
| 2026-05-05 19:43 | 40.75731 | -2.40575 | 34977 ft | 381 kts | 277° |
| 2026-05-05 19:43 | 40.76544 | -2.47481 | 34976 ft | 381 kts | 276° |
| 2026-05-05 19:44 | 40.77353 | -2.54402 | 34978 ft | 382 kts | 277° |
| 2026-05-05 19:44 | 40.78063 | -2.61297 | 34976 ft | 381 kts | 268° |
| 2026-05-05 19:44 | 40.77578 | -2.64703 | 34979 ft | 381 kts | 249° |
| 2026-05-05 19:45 | 40.76173 | -2.67672 | 34982 ft | 387 kts | 232° |
| 2026-05-05 19:45 | 40.72390 | -2.72776 | 34972 ft | 390 kts | 230° |
| 2026-05-05 19:46 | 40.68538 | -2.77839 | 34967 ft | 392 kts | 230° |
| 2026-05-05 19:46 | 40.64472 | -2.82657 | 34969 ft | 399 kts | 220° |
| 2026-05-05 19:47 | 40.59769 | -2.86588 | 34966 ft | 402 kts | 217° |
| 2026-05-05 19:47 | 40.54989 | -2.90325 | 34968 ft | 403 kts | 217° |
| 2026-05-05 19:48 | 40.50177 | -2.94112 | 34971 ft | 403 kts | 217° |
| 2026-05-05 19:48 | 40.45394 | -2.97945 | 34971 ft | 403 kts | 218° |
| 2026-05-05 19:49 | 40.40623 | -3.01794 | 34959 ft | 402 kts | 218° |
| 2026-05-05 19:49 | 40.35849 | -3.05626 | 34968 ft | 402 kts | 217° |
| 2026-05-05 19:50 | 40.31065 | -3.09446 | 34972 ft | 403 kts | 217° |
| 2026-05-05 19:50 | 40.26768 | -3.13898 | 34971 ft | 386 kts | 242° |
| 2026-05-05 19:50 | 40.25850 | -3.17077 | 34969 ft | 378 kts | 263° |
| 2026-05-05 19:51 | 40.26019 | -3.20493 | 34962 ft | 380 kts | 283° |
| 2026-05-05 19:51 | 40.28187 | -3.26856 | 34955 ft | 386 kts | 293° |
| 2026-05-05 19:52 | 40.30640 | -3.33126 | 34953 ft | 386 kts | 289° |
| 2026-05-05 19:52 | 40.31648 | -3.36326 | 34975 ft | 375 kts | 292° |
| 2026-05-05 19:52 | 40.33141 | -3.39072 | 34976 ft | 369 kts | 309° |
| 2026-05-05 19:53 | 40.37064 | -3.43170 | 34975 ft | 352 kts | 315° |
| 2026-05-05 19:53 | 40.40887 | -3.47028 | 34975 ft | 347 kts | 315° |
| 2026-05-05 19:54 | 40.44705 | -3.50911 | 34975 ft | 347 kts | 315° |
| 2026-05-05 19:54 | 40.48521 | -3.54785 | 34975 ft | 347 kts | 315° |
| 2026-05-05 19:54 | 40.50444 | -3.56701 | 34802 ft | 346 kts | 316° |
| 2026-05-05 19:55 | 40.52361 | -3.58588 | 34427 ft | 343 kts | 316° |
| 2026-05-05 19:55 | 40.54258 | -3.60449 | 34092 ft | 339 kts | 315° |
| 2026-05-05 19:55 | 40.56204 | -3.62191 | 33704 ft | 342 kts | 326° |
| 2026-05-05 19:55 | 40.58496 | -3.63090 | 33319 ft | 357 kts | 346° |
| 2026-05-05 19:56 | 40.61018 | -3.62809 | 32924 ft | 376 kts | 9° |
| 2026-05-05 19:56 | 40.63376 | -3.61181 | 32502 ft | 395 kts | 34° |
| 2026-05-05 19:56 | 40.65110 | -3.58329 | 32098 ft | 408 kts | 61° |
| 2026-05-05 19:56 | 40.65872 | -3.54726 | 31673 ft | 411 kts | 88° |
| 2026-05-05 19:57 | 40.65507 | -3.51043 | 31241 ft | 404 kts | 115° |
| 2026-05-05 19:57 | 40.64113 | -3.47954 | 30808 ft | 386 kts | 143° |
| 2026-05-05 19:57 | 40.62113 | -3.45667 | 30338 ft | 377 kts | 153° |
| 2026-05-05 19:57 | 40.60004 | -3.43743 | 29911 ft | 372 kts | 156° |
| 2026-05-05 19:58 | 40.57829 | -3.41905 | 29439 ft | 371 kts | 157° |
| 2026-05-05 19:58 | 40.55671 | -3.40066 | 29030 ft | 368 kts | 159° |
| 2026-05-05 19:58 | 40.53405 | -3.38799 | 28611 ft | 342 kts | 180° |
| 2026-05-05 19:58 | 40.51124 | -3.38587 | 28189 ft | 317 kts | 199° |
| 2026-05-05 19:59 | 40.49072 | -3.39272 | 27761 ft | 295 kts | 216° |
| 2026-05-05 19:59 | 40.47399 | -3.40664 | 27340 ft | 277 kts | 232° |
| 2026-05-05 19:59 | 40.46186 | -3.42533 | 26938 ft | 264 kts | 246° |
| 2026-05-05 19:59 | 40.45449 | -3.44688 | 26497 ft | 256 kts | 259° |
| 2026-05-05 20:00 | 40.45191 | -3.46973 | 26088 ft | 252 kts | 272° |
| 2026-05-05 20:00 | 40.45393 | -3.49215 | 25707 ft | 251 kts | 284° |
| 2026-05-05 20:00 | 40.46055 | -3.51362 | 25361 ft | 252 kts | 297° |
| 2026-05-05 20:00 | 40.47113 | -3.53175 | 25033 ft | 256 kts | 309° |
| 2026-05-05 20:01 | 40.48444 | -3.54740 | 24689 ft | 258 kts | 313° |
| 2026-05-05 20:01 | 40.49859 | -3.56187 | 24359 ft | 258 kts | 315° |
| 2026-05-05 20:01 | 40.51296 | -3.57585 | 24047 ft | 256 kts | 316° |
| 2026-05-05 20:01 | 40.52727 | -3.58967 | 23740 ft | 254 kts | 316° |
| 2026-05-05 20:02 | 40.54146 | -3.60345 | 23408 ft | 252 kts | 316° |
| 2026-05-05 20:02 | 40.55564 | -3.61690 | 23047 ft | 254 kts | 322° |
| 2026-05-05 20:02 | 40.57302 | -3.62377 | 22663 ft | 274 kts | 349° |
| 2026-05-05 20:02 | 40.59220 | -3.61772 | 22314 ft | 300 kts | 22° |
| 2026-05-05 20:03 | 40.60751 | -3.59801 | 21961 ft | 322 kts | 55° |
| 2026-05-05 20:03 | 40.61388 | -3.56991 | 21620 ft | 332 kts | 88° |
| 2026-05-05 20:03 | 40.60927 | -3.54055 | 21293 ft | 328 kts | 120° |
| 2026-05-05 20:03 | 40.59529 | -3.51798 | 20828 ft | 313 kts | 148° |
| 2026-05-05 20:04 | 40.57740 | -3.50253 | 20337 ft | 305 kts | 158° |
| 2026-05-05 20:04 | 40.55877 | -3.48957 | 19910 ft | 300 kts | 158° |
| 2026-05-05 20:04 | 40.54039 | -3.47700 | 19505 ft | 294 kts | 163° |
| 2026-05-05 20:04 | 40.52120 | -3.47233 | 19132 ft | 273 kts | 191° |
| 2026-05-05 20:05 | 40.50349 | -3.47815 | 18706 ft | 258 kts | 213° |
| 2026-05-05 20:05 | 40.48972 | -3.49271 | 17908 ft | 257 kts | 238° |
| 2026-05-05 20:05 | 40.48277 | -3.51452 | 16816 ft | 268 kts | 266° |
| 2026-05-05 20:05 | 40.48517 | -3.53882 | 15776 ft | 281 kts | 294° |
| 2026-05-05 20:06 | 40.49735 | -3.55940 | 14758 ft | 296 kts | 319° |
| 2026-05-05 20:06 | 40.51390 | -3.57626 | 13767 ft | 306 kts | 321° |
| 2026-05-05 20:06 | 40.53115 | -3.59335 | 12683 ft | 314 kts | 321° |
| 2026-05-05 20:06 | 40.54857 | -3.61089 | 11660 ft | 317 kts | 316° |
| 2026-05-05 20:07 | 40.56377 | -3.63182 | 10652 ft | 317 kts | 311° |
| 2026-05-05 20:07 | 40.57892 | -3.65302 | 9640 ft | 318 kts | 311° |
| 2026-05-05 20:07 | 40.59405 | -3.67428 | 8590 ft | 318 kts | 312° |
| 2026-05-05 20:07 | 40.60899 | -3.69558 | 7561 ft | 316 kts | 311° |
| 2026-05-05 20:08 | 40.62341 | -3.71635 | 7220 ft | 293 kts | 311° |
| 2026-05-05 20:08 | 40.63636 | -3.73505 | 7099 ft | 267 kts | 311° |
| 2026-05-05 20:08 | 40.64821 | -3.75246 | 6979 ft | 243 kts | 307° |
| 2026-05-05 20:08 | 40.65717 | -3.77015 | 6848 ft | 222 kts | 296° |
| 2026-05-05 20:09 | 40.65976 | -3.78937 | 6552 ft | 214 kts | 264° |
| 2026-05-05 20:09 | 40.65399 | -3.80729 | 6284 ft | 209 kts | 241° |
| 2026-05-05 20:09 | 40.64586 | -3.82246 | 5969 ft | 201 kts | 238° |
| 2026-05-05 20:09 | 40.63738 | -3.83711 | 5489 ft | 202 kts | 238° |
| 2026-05-05 20:10 | 40.62875 | -3.85168 | 5069 ft | 200 kts | 237° |
| 2026-05-05 20:10 | 40.62034 | -3.86615 | 5054 ft | 200 kts | 239° |
| 2026-05-05 20:10 | 40.61050 | -3.87916 | 5055 ft | 198 kts | 221° |
| 2026-05-05 20:10 | 40.60022 | -3.88958 | 5042 ft | 179 kts | 224° |
| 2026-05-05 20:11 | 40.59080 | -3.89913 | 5026 ft | 169 kts | 223° |
| 2026-05-05 20:11 | 40.58164 | -3.90849 | 4843 ft | 164 kts | 224° |
| 2026-05-05 20:11 | 40.57288 | -3.91743 | 4712 ft | 155 kts | 222° |
| 2026-05-05 20:11 | 40.56454 | -3.92594 | 4626 ft | 151 kts | 221° |
| 2026-05-05 20:12 | 40.55630 | -3.93436 | 4542 ft | 149 kts | 221° |
| 2026-05-05 20:12 | 40.54814 | -3.94272 | 4475 ft | 148 kts | 221° |
| 2026-05-05 20:12 | 40.54004 | -3.95102 | 4404 ft | 147 kts | 220° |
| 2026-05-05 20:12 | 40.53199 | -3.95928 | 4343 ft | 147 kts | 220° |
| 2026-05-05 20:13 | 40.52398 | -3.96747 | 4283 ft | 145 kts | 219° |
| 2026-05-05 20:13 | 40.51600 | -3.97562 | 4222 ft | 145 kts | 222° |
| 2026-05-05 20:13 | 40.50803 | -3.98376 | 4152 ft | 145 kts | 220° |
| 2026-05-05 20:13 | 40.49882 | -3.98904 | 4094 ft | 150 kts | 175° |
| 2026-05-05 20:14 | 40.49043 | -3.98172 | 4058 ft | 153 kts | 111° |
| 2026-05-05 20:14 | 40.49036 | -3.96879 | 4013 ft | 146 kts | 54° |
| 2026-05-05 20:14 | 40.49862 | -3.96303 | 3952 ft | 139 kts | 347° |
| 2026-05-05 20:14 | 40.50732 | -3.97058 | 3916 ft | 166 kts | 313° |
| 2026-05-05 20:15 | 40.51707 | -3.97914 | 3833 ft | 175 kts | 346° |
| 2026-05-05 20:15 | 40.52961 | -3.97480 | 3840 ft | 206 kts | 33° |
| 2026-05-05 20:15 | 40.53962 | -3.95985 | 4014 ft | 232 kts | 60° |
| 2026-05-05 20:15 | 40.54385 | -3.93814 | 4264 ft | 263 kts | 89° |
| 2026-05-05 20:16 | 40.54120 | -3.91414 | 4524 ft | 275 kts | 106° |
| 2026-05-05 20:16 | 40.53164 | -3.89227 | 4808 ft | 282 kts | 130° |
| 2026-05-05 20:16 | 40.51744 | -3.87438 | 4993 ft | 286 kts | 139° |
| 2026-05-05 20:16 | 40.50085 | -3.85957 | 5042 ft | 291 kts | 156° |
| 2026-05-05 20:17 | 40.48263 | -3.84779 | 5038 ft | 293 kts | 148° |
| 2026-05-05 20:17 | 40.46486 | -3.83537 | 5035 ft | 283 kts | 163° |
| 2026-05-05 20:17 | 40.44635 | -3.82991 | 5035 ft | 263 kts | 171° |
| 2026-05-05 20:17 | 40.42891 | -3.82578 | 5056 ft | 246 kts | 171° |
| 2026-05-05 20:18 | 40.41232 | -3.82188 | 5041 ft | 240 kts | 172° |
| 2026-05-05 20:18 | 40.39601 | -3.81807 | 5035 ft | 237 kts | 171° |
| 2026-05-05 20:18 | 40.37977 | -3.81444 | 5032 ft | 236 kts | 172° |
| 2026-05-05 20:18 | 40.36428 | -3.81102 | 5045 ft | 221 kts | 172° |
| 2026-05-05 20:19 | 40.34957 | -3.80603 | 5030 ft | 218 kts | 159° |
| 2026-05-05 20:19 | 40.33572 | -3.79815 | 5027 ft | 216 kts | 155° |
| 2026-05-05 20:19 | 40.32372 | -3.78802 | 4974 ft | 196 kts | 142° |
| 2026-05-05 20:19 | 40.31394 | -3.77677 | 4860 ft | 177 kts | 131° |
| 2026-05-05 20:20 | 40.30716 | -3.76445 | 4669 ft | 161 kts | 117° |
| 2026-05-05 20:20 | 40.30238 | -3.75152 | 4370 ft | 155 kts | 101° |
| 2026-05-05 20:20 | 40.30238 | -3.73788 | 4050 ft | 148 kts | 75° |
| 2026-05-05 20:20 | 40.30433 | -3.72499 | 3929 ft | 141 kts | 71° |
| 2026-05-05 20:21 | 40.30610 | -3.71209 | 3973 ft | 148 kts | 82° |
| 2026-05-05 20:21 | 40.30406 | -3.69870 | 4001 ft | 154 kts | 106° |
| 2026-05-05 20:21 | 40.29977 | -3.68576 | 4005 ft | 155 kts | 111° |
| 2026-05-05 20:21 | 40.29519 | -3.67313 | 4006 ft | 156 kts | 112° |
| 2026-05-05 20:22 | 40.29053 | -3.66030 | 4008 ft | 156 kts | 111° |
| 2026-05-05 20:22 | 40.28590 | -3.64750 | 4009 ft | 155 kts | 111° |
| 2026-05-05 20:22 | 40.28129 | -3.63473 | 4009 ft | 155 kts | 111° |
| 2026-05-05 20:22 | 40.27703 | -3.62180 | 4009 ft | 154 kts | 105° |
| 2026-05-05 20:23 | 40.27397 | -3.60839 | 4011 ft | 154 kts | 101° |
| 2026-05-05 20:23 | 40.27108 | -3.59494 | 4006 ft | 153 kts | 101° |
| 2026-05-05 20:23 | 40.26816 | -3.58149 | 4008 ft | 154 kts | 101° |
| 2026-05-05 20:23 | 40.26525 | -3.56804 | 4007 ft | 153 kts | 99° |
| 2026-05-05 20:24 | 40.26415 | -3.55434 | 4011 ft | 150 kts | 79° |
| 2026-05-05 20:24 | 40.26582 | -3.54106 | 4008 ft | 146 kts | 71° |
| 2026-05-05 20:24 | 40.27113 | -3.53083 | 4011 ft | 133 kts | 21° |
| 2026-05-05 20:24 | 40.27969 | -3.53055 | 4009 ft | 127 kts | 337° |
| 2026-05-05 20:25 | 40.28753 | -3.53591 | 4007 ft | 128 kts | 331° |
| 2026-05-05 20:25 | 40.29622 | -3.53745 | 4010 ft | 131 kts | 8° |
| 2026-05-05 20:25 | 40.30475 | -3.53284 | 3989 ft | 138 kts | 37° |
| 2026-05-05 20:25 | 40.31094 | -3.52318 | 4011 ft | 140 kts | 49° |
| 2026-05-05 20:26 | 40.31637 | -3.51254 | 4008 ft | 142 kts | 54° |
| 2026-05-05 20:26 | 40.32003 | -3.50035 | 4003 ft | 147 kts | 72° |
| 2026-05-05 20:26 | 40.32316 | -3.48776 | 4006 ft | 143 kts | 56° |
| 2026-05-05 20:26 | 40.32987 | -3.47909 | 4004 ft | 132 kts | 16° |
| 2026-05-05 20:27 | 40.33850 | -3.47647 | 3766 ft | 127 kts | 3° |
| 2026-05-05 20:27 | 40.34725 | -3.47450 | 3414 ft | 128 kts | 9° |
| 2026-05-05 20:27 | 40.35566 | -3.47108 | 3093 ft | 129 kts | 14° |
| 2026-05-05 20:27 | 40.36425 | -3.46759 | 3022 ft | 129 kts | 359° |
| 2026-05-05 20:28 | 40.37314 | -3.46867 | 3012 ft | 130 kts | 348° |
| 2026-05-05 20:28 | 40.38213 | -3.47048 | 3008 ft | 131 kts | 349° |
| 2026-05-05 20:28 | 40.39108 | -3.47243 | 2994 ft | 131 kts | 348° |
| 2026-05-05 20:28 | 40.40007 | -3.47469 | 2931 ft | 131 kts | 345° |
| 2026-05-05 20:29 | 40.40873 | -3.47826 | 2879 ft | 130 kts | 336° |
| 2026-05-05 20:29 | 40.41699 | -3.48344 | 2791 ft | 133 kts | 332° |
| 2026-05-05 20:29 | 40.42513 | -3.48924 | 2710 ft | 135 kts | 329° |
| 2026-05-05 20:29 | 40.43300 | -3.49580 | 2659 ft | 134 kts | 324° |
| 2026-05-05 20:30 | 40.44052 | -3.50289 | 2556 ft | 133 kts | 321° |
| 2026-05-05 20:30 | 40.44784 | -3.51033 | 2429 ft | 133 kts | 323° |
| 2026-05-05 20:30 | 40.45513 | -3.51764 | 2311 ft | 131 kts | 321° |
| 2026-05-05 20:30 | 40.46222 | -3.52477 | 2170 ft | 131 kts | 322° |
| 2026-05-05 20:31 | 40.46950 | -3.53218 | 2015 ft | 133 kts | 321° |
| 2026-05-05 20:31 | 40.47673 | -3.53953 | 1929 ft | 130 kts | 321° |
| 2026-05-05 20:31 | 40.48281 | -3.54569 | 1934 ft | 76 kts | 323° |
| 2026-05-05 20:31 | 40.48623 | -3.54914 | 1946 ft | 50 kts | 323° |
| 2026-05-05 20:32 | 40.48785 | -3.55161 | 1952 ft | 31 kts | 295° |
| 2026-05-05 20:32 | 40.48843 | -3.55353 | 1953 ft | 19 kts | 295° |
| 2026-05-05 20:32 | 40.48918 | -3.55491 | 1953 ft | 19 kts | 322° |
| 2026-05-05 20:32 | 40.49026 | -3.55599 | 1954 ft | 20 kts | 321° |
| 2026-05-05 20:33 | 40.49132 | -3.55707 | 1958 ft | 18 kts | 323° |
| 2026-05-05 20:33 | 40.49233 | -3.55810 | 1960 ft | 19 kts | 322° |
| 2026-05-05 20:33 | 40.49297 | -3.55940 | 1960 ft | 17 kts | 275° |
| 2026-05-05 20:33 | 40.49299 | -3.56102 | 1958 ft | 19 kts | 270° |
| 2026-05-05 20:34 | 40.49268 | -3.56240 | 1961 ft | 13 kts | 187° |
| 2026-05-05 20:34 | 40.49187 | -3.56245 | 1962 ft | 11 kts | 179° |
| 2026-05-05 20:34 | 40.49115 | -3.56245 | 1962 ft | 11 kts | 180° |
| 2026-05-05 20:34 | 40.48982 | -3.56244 | 1962 ft | 22 kts | 179° |
| 2026-05-05 20:35 | 40.48859 | -3.56291 | 1963 ft | 12 kts | 257° |
| 2026-05-05 20:35 | 40.48861 | -3.56374 | 1965 ft | 14 kts | 270° |
| 2026-05-05 20:35 | 40.48922 | -3.56455 | 1967 ft | 13 kts | 326° |
| 2026-05-05 20:35 | 40.48972 | -3.56534 | 1971 ft | 12 kts | 337° |
| 2026-05-05 20:36 | 40.49060 | -3.56542 | 1973 ft | 14 kts | 360° |
| 2026-05-05 20:36 | 40.49165 | -3.56543 | 1970 ft | 16 kts | 359° |
| 2026-05-05 20:36 | 40.49216 | -3.56602 | 1973 ft | 7 kts | 269° |
| 2026-05-05 20:36 | 40.49216 | -3.56659 | 1971 ft | 1 kts | 270° |
| 2026-05-05 20:37 | 40.49216 | -3.56661 | 1971 ft | 0 kts | 270° |